sensor_id;sensor_type;location;lat;lon;timestamp;P1;durP1;ratioP1;P2;durP2;ratioP2
64342;SDS011;50675;53.530;-6.312;2022-11-15T00:05:08;7.88;;;1.85;;
64342;SDS011;50675;53.530;-6.312;2022-11-15T00:07:56;8.50;;;1.85;;
64342;SDS011;50675;53.530;-6.312;2022-11-15T00:11:21;8.88;;;2.25;;
64342;SDS011;50675;53.530;-6.312;2022-11-15T00:14:04;5.30;;;1.98;;
64342;SDS011;50675;53.530;-6.312;2022-11-15T00:20:36;6.60;;;1.63;;
64342;SDS011;50675;53.530;-6.312;2022-11-15T00:23:53;8.73;;;1.80;;
64342;SDS011;50675;53.530;-6.312;2022-11-15T00:29:16;11.88;;;1.60;;
64342;SDS011;50675;53.530;-6.312;2022-11-15T00:32:15;8.48;;;2.28;;
64342;SDS011;50675;53.530;-6.312;2022-11-15T00:35:04;10.32;;;1.75;;
64342;SDS011;50675;53.530;-6.312;2022-11-15T00:37:55;11.02;;;1.83;;
64342;SDS011;50675;53.530;-6.312;2022-11-15T08:06:53;5.65;;;1.65;;
64342;SDS011;50675;53.530;-6.312;2022-11-15T08:43:25;5.35;;;1.63;;
64342;SDS011;50675;53.530;-6.312;2022-11-15T08:46:20;6.00;;;1.60;;
64342;SDS011;50675;53.530;-6.312;2022-11-15T08:51:55;5.10;;;1.42;;
64342;SDS011;50675;53.530;-6.312;2022-11-15T08:54:29;7.82;;;2.20;;
64342;SDS011;50675;53.530;-6.312;2022-11-15T08:56:57;6.60;;;2.28;;
64342;SDS011;50675;53.530;-6.312;2022-11-15T09:06:35;12.65;;;2.00;;
64342;SDS011;50675;53.530;-6.312;2022-11-15T09:31:13;8.52;;;1.80;;
64342;SDS011;50675;53.530;-6.312;2022-11-15T09:34:26;9.00;;;1.77;;
64342;SDS011;50675;53.530;-6.312;2022-11-15T10:52:18;7.53;;;1.65;;
64342;SDS011;50675;53.530;-6.312;2022-11-15T10:55:12;7.22;;;1.95;;
64342;SDS011;50675;53.530;-6.312;2022-11-15T10:57:56;12.25;;;2.30;;
64342;SDS011;50675;53.530;-6.312;2022-11-15T11:01:41;10.35;;;2.45;;
64342;SDS011;50675;53.530;-6.312;2022-11-15T11:04:20;8.23;;;2.10;;
64342;SDS011;50675;53.530;-6.312;2022-11-15T11:06:54;6.53;;;1.98;;
64342;SDS011;50675;53.530;-6.312;2022-11-15T11:09:39;13.97;;;2.87;;
64342;SDS011;50675;53.530;-6.312;2022-11-15T11:12:14;9.40;;;1.85;;
64342;SDS011;50675;53.530;-6.312;2022-11-15T11:15:17;7.57;;;2.13;;
64342;SDS011;50675;53.530;-6.312;2022-11-15T11:20:54;8.43;;;2.05;;
64342;SDS011;50675;53.530;-6.312;2022-11-15T11:44:42;10.07;;;1.83;;
64342;SDS011;50675;53.530;-6.312;2022-11-15T11:47:20;7.20;;;1.60;;
64342;SDS011;50675;53.530;-6.312;2022-11-15T11:50:15;9.25;;;2.15;;
64342;SDS011;50675;53.530;-6.312;2022-11-15T11:56:03;8.73;;;1.63;;
64342;SDS011;50675;53.530;-6.312;2022-11-15T11:58:58;9.63;;;1.63;;
64342;SDS011;50675;53.530;-6.312;2022-11-15T12:01:43;6.70;;;1.60;;
64342;SDS011;50675;53.530;-6.312;2022-11-15T12:04:21;7.75;;;1.55;;
64342;SDS011;50675;53.530;-6.312;2022-11-15T12:10:21;8.45;;;1.85;;
64342;SDS011;50675;53.530;-6.312;2022-11-15T12:18:54;5.15;;;1.55;;
64342;SDS011;50675;53.530;-6.312;2022-11-15T12:24:11;9.25;;;1.60;;
64342;SDS011;50675;53.530;-6.312;2022-11-15T12:27:11;4.05;;;1.58;;
64342;SDS011;50675;53.530;-6.312;2022-11-15T12:29:57;8.60;;;2.15;;
64342;SDS011;50675;53.530;-6.312;2022-11-15T12:32:37;12.80;;;2.38;;
64342;SDS011;50675;53.530;-6.312;2022-11-15T12:38:58;7.40;;;1.65;;
64342;SDS011;50675;53.530;-6.312;2022-11-15T12:47:25;8.35;;;1.67;;
64342;SDS011;50675;53.530;-6.312;2022-11-15T12:49:57;13.02;;;2.38;;
64342;SDS011;50675;53.530;-6.312;2022-11-15T12:52:37;12.87;;;2.13;;
64342;SDS011;50675;53.530;-6.312;2022-11-15T12:59:00;7.43;;;1.50;;
64342;SDS011;50675;53.530;-6.312;2022-11-15T13:04:26;6.88;;;1.98;;
64342;SDS011;50675;53.530;-6.312;2022-11-15T13:07:02;10.55;;;1.88;;
64342;SDS011;50675;53.530;-6.312;2022-11-15T13:12:10;4.72;;;1.48;;
64342;SDS011;50675;53.530;-6.312;2022-11-15T13:18:33;8.90;;;2.00;;
64342;SDS011;50675;53.530;-6.312;2022-11-15T13:21:27;3.92;;;1.33;;
64342;SDS011;50675;53.530;-6.312;2022-11-15T13:24:13;9.57;;;2.17;;
64342;SDS011;50675;53.530;-6.312;2022-11-15T13:26:44;7.97;;;1.88;;
64342;SDS011;50675;53.530;-6.312;2022-11-15T13:29:24;7.20;;;1.48;;
64342;SDS011;50675;53.530;-6.312;2022-11-15T13:32:20;12.90;;;1.98;;
64342;SDS011;50675;53.530;-6.312;2022-11-15T13:34:53;11.40;;;2.10;;
64342;SDS011;50675;53.530;-6.312;2022-11-15T13:39:54;9.07;;;1.60;;
64342;SDS011;50675;53.530;-6.312;2022-11-15T13:42:45;5.40;;;1.92;;
64342;SDS011;50675;53.530;-6.312;2022-11-15T13:52:45;10.32;;;1.95;;
64342;SDS011;50675;53.530;-6.312;2022-11-15T13:55:41;8.55;;;2.00;;
64342;SDS011;50675;53.530;-6.312;2022-11-15T13:58:33;5.90;;;1.10;;
64342;SDS011;50675;53.530;-6.312;2022-11-15T14:01:31;9.35;;;1.58;;
64342;SDS011;50675;53.530;-6.312;2022-11-15T14:04:36;5.78;;;1.55;;
64342;SDS011;50675;53.530;-6.312;2022-11-15T14:08:01;9.98;;;2.20;;
64342;SDS011;50675;53.530;-6.312;2022-11-15T14:14:32;4.15;;;1.27;;
64342;SDS011;50675;53.530;-6.312;2022-11-15T14:17:35;4.93;;;1.25;;
64342;SDS011;50675;53.530;-6.312;2022-11-15T14:23:38;12.77;;;2.47;;
64342;SDS011;50675;53.530;-6.312;2022-11-15T14:26:33;8.07;;;2.20;;
64342;SDS011;50675;53.530;-6.312;2022-11-15T14:29:31;9.68;;;2.03;;
64342;SDS011;50675;53.530;-6.312;2022-11-15T14:32:38;11.45;;;2.25;;
64342;SDS011;50675;53.530;-6.312;2022-11-15T14:35:41;8.23;;;1.42;;
64342;SDS011;50675;53.530;-6.312;2022-11-15T14:44:00;8.60;;;1.40;;
64342;SDS011;50675;53.530;-6.312;2022-11-15T14:46:31;9.40;;;1.40;;
64342;SDS011;50675;53.530;-6.312;2022-11-15T14:48:59;9.98;;;2.38;;
64342;SDS011;50675;53.530;-6.312;2022-11-15T14:51:51;11.23;;;1.83;;
64342;SDS011;50675;53.530;-6.312;2022-11-15T14:54:26;12.88;;;1.63;;
64342;SDS011;50675;53.530;-6.312;2022-11-15T14:56:55;6.07;;;2.05;;
64342;SDS011;50675;53.530;-6.312;2022-11-15T14:59:29;6.20;;;1.70;;
64342;SDS011;50675;53.530;-6.312;2022-11-15T15:02:04;8.02;;;1.33;;
64342;SDS011;50675;53.530;-6.312;2022-11-15T15:08:11;6.53;;;2.00;;
64342;SDS011;50675;53.530;-6.312;2022-11-15T15:10:55;8.38;;;1.77;;
64342;SDS011;50675;53.530;-6.312;2022-11-15T15:13:37;6.82;;;1.30;;
64342;SDS011;50675;53.530;-6.312;2022-11-15T15:16:41;7.90;;;1.80;;
64342;SDS011;50675;53.530;-6.312;2022-11-15T15:19:15;4.55;;;1.25;;
64342;SDS011;50675;53.530;-6.312;2022-11-15T15:21:46;5.80;;;1.63;;
64342;SDS011;50675;53.530;-6.312;2022-11-15T15:24:25;10.10;;;2.42;;
64342;SDS011;50675;53.530;-6.312;2022-11-15T15:26:54;21.20;;;3.30;;
64342;SDS011;50675;53.530;-6.312;2022-11-15T15:29:27;23.35;;;3.20;;
64342;SDS011;50675;53.530;-6.312;2022-11-15T15:32:00;12.75;;;2.55;;
64342;SDS011;50675;53.530;-6.312;2022-11-15T15:34:54;14.98;;;2.10;;
64342;SDS011;50675;53.530;-6.312;2022-11-15T15:37:34;22.38;;;3.03;;
64342;SDS011;50675;53.530;-6.312;2022-11-15T15:40:21;26.25;;;4.25;;
64342;SDS011;50675;53.530;-6.312;2022-11-15T15:42:51;18.17;;;2.65;;
64342;SDS011;50675;53.530;-6.312;2022-11-15T15:45:32;11.63;;;2.38;;
64342;SDS011;50675;53.530;-6.312;2022-11-15T15:48:21;29.25;;;5.55;;
64342;SDS011;50675;53.530;-6.312;2022-11-15T15:51:02;18.77;;;3.08;;
64342;SDS011;50675;53.530;-6.312;2022-11-15T15:53:44;9.30;;;2.42;;
64342;SDS011;50675;53.530;-6.312;2022-11-15T15:56:23;16.40;;;2.55;;
64342;SDS011;50675;53.530;-6.312;2022-11-15T15:59:27;19.38;;;3.15;;
64342;SDS011;50675;53.530;-6.312;2022-11-15T16:02:55;18.33;;;3.97;;
64342;SDS011;50675;53.530;-6.312;2022-11-15T16:05:43;16.67;;;3.75;;
64342;SDS011;50675;53.530;-6.312;2022-11-15T16:08:44;25.55;;;6.53;;
64342;SDS011;50675;53.530;-6.312;2022-11-15T16:11:25;19.75;;;3.72;;
64342;SDS011;50675;53.530;-6.312;2022-11-15T16:14:09;29.02;;;5.00;;
64342;SDS011;50675;53.530;-6.312;2022-11-15T16:16:38;11.25;;;2.28;;
64342;SDS011;50675;53.530;-6.312;2022-11-15T16:19:15;25.63;;;4.22;;
64342;SDS011;50675;53.530;-6.312;2022-11-15T16:21:48;20.17;;;5.25;;
64342;SDS011;50675;53.530;-6.312;2022-11-15T16:24:30;31.63;;;5.78;;
64342;SDS011;50675;53.530;-6.312;2022-11-15T16:30:01;34.22;;;7.43;;
64342;SDS011;50675;53.530;-6.312;2022-11-15T16:32:31;16.73;;;4.63;;
64342;SDS011;50675;53.530;-6.312;2022-11-15T16:35:05;23.25;;;5.03;;
64342;SDS011;50675;53.530;-6.312;2022-11-15T16:37:41;10.95;;;4.15;;
64342;SDS011;50675;53.530;-6.312;2022-11-15T16:42:58;11.55;;;2.47;;
64342;SDS011;50675;53.530;-6.312;2022-11-15T16:45:44;12.37;;;2.83;;
64342;SDS011;50675;53.530;-6.312;2022-11-15T16:48:24;14.20;;;3.22;;
64342;SDS011;50675;53.530;-6.312;2022-11-15T16:50:56;14.80;;;4.82;;
64342;SDS011;50675;53.530;-6.312;2022-11-15T16:53:28;29.27;;;4.73;;
64342;SDS011;50675;53.530;-6.312;2022-11-15T16:56:21;19.13;;;4.72;;
64342;SDS011;50675;53.530;-6.312;2022-11-15T16:58:54;28.60;;;6.38;;
64342;SDS011;50675;53.530;-6.312;2022-11-15T17:01:28;23.67;;;15.75;;
64342;SDS011;50675;53.530;-6.312;2022-11-15T17:04:00;30.63;;;11.85;;
64342;SDS011;50675;53.530;-6.312;2022-11-15T17:10:29;23.13;;;5.65;;
64342;SDS011;50675;53.530;-6.312;2022-11-15T17:16:38;22.38;;;4.82;;
64342;SDS011;50675;53.530;-6.312;2022-11-15T17:19:10;19.92;;;5.95;;
64342;SDS011;50675;53.530;-6.312;2022-11-15T17:21:38;33.05;;;6.68;;
64342;SDS011;50675;53.530;-6.312;2022-11-15T17:24:07;31.55;;;7.40;;
64342;SDS011;50675;53.530;-6.312;2022-11-15T17:26:41;23.23;;;8.00;;
64342;SDS011;50675;53.530;-6.312;2022-11-15T17:29:14;20.23;;;5.25;;
64342;SDS011;50675;53.530;-6.312;2022-11-15T17:32:20;9.70;;;3.95;;
64342;SDS011;50675;53.530;-6.312;2022-11-15T17:34:56;24.50;;;5.30;;
64342;SDS011;50675;53.530;-6.312;2022-11-15T17:37:27;12.25;;;4.32;;
64342;SDS011;50675;53.530;-6.312;2022-11-15T17:40:06;23.17;;;5.82;;
64342;SDS011;50675;53.530;-6.312;2022-11-15T17:42:38;18.30;;;5.35;;
64342;SDS011;50675;53.530;-6.312;2022-11-15T17:45:10;14.48;;;5.55;;
64342;SDS011;50675;53.530;-6.312;2022-11-15T17:47:39;20.90;;;5.68;;
64342;SDS011;50675;53.530;-6.312;2022-11-15T17:50:14;18.42;;;5.22;;
64342;SDS011;50675;53.530;-6.312;2022-11-15T17:52:53;25.88;;;5.20;;
64342;SDS011;50675;53.530;-6.312;2022-11-15T17:55:21;17.08;;;5.38;;
64342;SDS011;50675;53.530;-6.312;2022-11-15T17:57:50;18.73;;;5.72;;
64342;SDS011;50675;53.530;-6.312;2022-11-15T18:00:24;15.40;;;4.55;;
64342;SDS011;50675;53.530;-6.312;2022-11-15T18:03:04;19.50;;;5.88;;
64342;SDS011;50675;53.530;-6.312;2022-11-15T18:05:36;16.45;;;4.85;;
64342;SDS011;50675;53.530;-6.312;2022-11-15T18:08:10;11.25;;;4.70;;
64342;SDS011;50675;53.530;-6.312;2022-11-15T18:10:43;27.48;;;6.75;;
64342;SDS011;50675;53.530;-6.312;2022-11-15T18:13:11;17.23;;;6.38;;
64342;SDS011;50675;53.530;-6.312;2022-11-15T18:15:53;10.98;;;4.93;;
64342;SDS011;50675;53.530;-6.312;2022-11-15T18:18:37;19.30;;;6.43;;
64342;SDS011;50675;53.530;-6.312;2022-11-15T18:21:07;16.02;;;5.72;;
64342;SDS011;50675;53.530;-6.312;2022-11-15T18:23:48;17.35;;;6.25;;
64342;SDS011;50675;53.530;-6.312;2022-11-15T18:26:18;27.25;;;7.25;;
64342;SDS011;50675;53.530;-6.312;2022-11-15T18:29:00;16.70;;;5.50;;
64342;SDS011;50675;53.530;-6.312;2022-11-15T18:31:45;13.10;;;5.28;;
64342;SDS011;50675;53.530;-6.312;2022-11-15T18:34:27;25.90;;;7.13;;
64342;SDS011;50675;53.530;-6.312;2022-11-15T18:41:03;16.48;;;6.68;;
64342;SDS011;50675;53.530;-6.312;2022-11-15T18:43:37;11.70;;;5.25;;
64342;SDS011;50675;53.530;-6.312;2022-11-15T18:46:18;12.50;;;5.13;;
64342;SDS011;50675;53.530;-6.312;2022-11-15T18:48:53;13.57;;;5.85;;
64342;SDS011;50675;53.530;-6.312;2022-11-15T18:51:37;16.45;;;5.05;;
64342;SDS011;50675;53.530;-6.312;2022-11-15T18:54:06;22.15;;;6.75;;
64342;SDS011;50675;53.530;-6.312;2022-11-15T18:56:43;13.60;;;5.75;;
64342;SDS011;50675;53.530;-6.312;2022-11-15T18:59:22;13.77;;;5.10;;
64342;SDS011;50675;53.530;-6.312;2022-11-15T19:01:52;25.45;;;6.60;;
64342;SDS011;50675;53.530;-6.312;2022-11-15T19:04:28;12.10;;;4.55;;
64342;SDS011;50675;53.530;-6.312;2022-11-15T19:07:02;64.22;;;10.70;;
64342;SDS011;50675;53.530;-6.312;2022-11-15T19:09:33;12.45;;;4.50;;
64342;SDS011;50675;53.530;-6.312;2022-11-15T19:12:03;14.48;;;4.60;;
64342;SDS011;50675;53.530;-6.312;2022-11-15T19:18:34;13.27;;;4.70;;
64342;SDS011;50675;53.530;-6.312;2022-11-15T19:24:47;15.38;;;5.25;;
64342;SDS011;50675;53.530;-6.312;2022-11-15T19:27:40;47.88;;;18.08;;
64342;SDS011;50675;53.530;-6.312;2022-11-15T19:40:55;20.85;;;6.65;;
64342;SDS011;50675;53.530;-6.312;2022-11-15T19:43:34;11.43;;;5.53;;
64342;SDS011;50675;53.530;-6.312;2022-11-15T19:49:57;14.35;;;3.90;;
64342;SDS011;50675;53.530;-6.312;2022-11-15T20:02:37;10.55;;;3.42;;
64342;SDS011;50675;53.530;-6.312;2022-11-15T20:05:15;14.30;;;3.85;;
64342;SDS011;50675;53.530;-6.312;2022-11-15T20:07:47;9.07;;;3.30;;
64342;SDS011;50675;53.530;-6.312;2022-11-15T20:10:19;8.60;;;3.45;;
64342;SDS011;50675;53.530;-6.312;2022-11-15T20:13:00;7.65;;;3.80;;
64342;SDS011;50675;53.530;-6.312;2022-11-15T20:19:27;7.75;;;3.83;;
64342;SDS011;50675;53.530;-6.312;2022-11-15T20:22:01;10.52;;;3.83;;
64342;SDS011;50675;53.530;-6.312;2022-11-15T20:28:00;6.93;;;3.00;;
64342;SDS011;50675;53.530;-6.312;2022-11-15T20:38:07;13.38;;;4.40;;
64342;SDS011;50675;53.530;-6.312;2022-11-15T20:40:37;17.77;;;4.57;;
64342;SDS011;50675;53.530;-6.312;2022-11-15T20:43:09;12.55;;;5.13;;
64342;SDS011;50675;53.530;-6.312;2022-11-15T20:49:06;28.38;;;8.02;;
64342;SDS011;50675;53.530;-6.312;2022-11-15T20:51:36;19.42;;;7.32;;
64342;SDS011;50675;53.530;-6.312;2022-11-15T20:54:37;14.88;;;6.13;;
64342;SDS011;50675;53.530;-6.312;2022-11-15T20:57:29;11.80;;;4.78;;
64342;SDS011;50675;53.530;-6.312;2022-11-15T21:00:18;10.73;;;3.88;;
64342;SDS011;50675;53.530;-6.312;2022-11-15T21:02:57;11.40;;;4.53;;
64342;SDS011;50675;53.530;-6.312;2022-11-15T21:05:41;10.27;;;5.20;;
64342;SDS011;50675;53.530;-6.312;2022-11-15T21:08:46;14.45;;;5.20;;
64342;SDS011;50675;53.530;-6.312;2022-11-15T21:11:42;10.77;;;4.70;;
64342;SDS011;50675;53.530;-6.312;2022-11-15T21:14:32;12.70;;;4.72;;
64342;SDS011;50675;53.530;-6.312;2022-11-15T21:17:01;15.47;;;5.13;;
64342;SDS011;50675;53.530;-6.312;2022-11-15T21:19:32;14.48;;;4.22;;
64342;SDS011;50675;53.530;-6.312;2022-11-15T21:22:14;10.70;;;5.20;;
64342;SDS011;50675;53.530;-6.312;2022-11-15T21:24:57;11.95;;;5.82;;
64342;SDS011;50675;53.530;-6.312;2022-11-15T21:35:11;9.68;;;4.70;;
64342;SDS011;50675;53.530;-6.312;2022-11-15T21:37:51;10.88;;;4.50;;
64342;SDS011;50675;53.530;-6.312;2022-11-15T21:44:43;14.43;;;4.97;;
64342;SDS011;50675;53.530;-6.312;2022-11-15T21:51:03;10.90;;;4.82;;
64342;SDS011;50675;53.530;-6.312;2022-11-15T21:54:01;14.52;;;5.03;;
64342;SDS011;50675;53.530;-6.312;2022-11-15T21:56:55;9.57;;;4.72;;
64342;SDS011;50675;53.530;-6.312;2022-11-15T21:59:28;8.38;;;4.53;;
64342;SDS011;50675;53.530;-6.312;2022-11-15T22:02:10;10.40;;;4.18;;
64342;SDS011;50675;53.530;-6.312;2022-11-15T22:04:39;10.57;;;4.38;;
64342;SDS011;50675;53.530;-6.312;2022-11-15T22:07:43;12.18;;;3.72;;
64342;SDS011;50675;53.530;-6.312;2022-11-15T22:10:39;6.90;;;3.42;;
64342;SDS011;50675;53.530;-6.312;2022-11-15T22:13:27;10.35;;;3.92;;
64342;SDS011;50675;53.530;-6.312;2022-11-15T22:16:20;9.45;;;3.53;;
